Terminal Aerodrome Forecast
Issued by NWS

Home | Current Version | Previous Version | Text Only | Print | Product List | Glossary On
Versions: 1 2 3 4 5 6 7 8 9 10 11 12 13 14 15 16 17 18 19
845
FTUS43 KDLH 251141
TAFHYR
TAF
KHYR 251141Z 2512/2612 19003KT P6SM SKC
      TEMPO 2512/2513 1SM BR
     FM251700 25009G17KT P6SM SCT040
     FM252200 25007KT P6SM SCT050
     FM261000 VRB03KT P6SM SCT080
      TEMPO 2610/2612 1SM BR=

USA.gov is the U.S. government's official web portal to all federal, state and local government web resources and services.